KCLL/CLL METAR and TAF weather

Enter ICAO airport designator
Station Type Date Time Source
KCLL METAR 2019/06/26 22:18 UTC NOAA

KCLL 262218Z 00000KT 10SM -RA BKN110 23/21 A3012 RMK AO2 LTG DSNT N TSB2157E12 P0004 T02330211


Station Type Date Time Source
KCLL Decoded METAR 2019/06/26 22:18 UTC NOAA

COLLEGE STN EASTERWOOD FIELD, TX, United States (KCLL) 30-35N 096-22W 96M
Jun 26, 2019 - 06:18 PM EDT / 2019.06.26 2218 UTC
Wind: Calm:0
Visibility: 10 mile(s):0
Sky conditions: mostly cloudy
Weather: light rain; Lightning observed
Precipitation last hour: 0.04 inches
Temperature: 73.9 F (23.3 C)
Dew Point: 70.0 F (21.1 C)
Relative Humidity: 87%
Pressure (altimeter): 30.12 in. Hg (1019 hPa)
ob: KCLL 262218Z 00000KT 10SM -RA BKN110 23/21 A3012 RMK AO2 LTG DSNT N TSB2157E12 P0004 T02330211
cycle: 22

Station Type Date Time Source
KCLL TAF 2019/06/26 22:15 UTC NOAA

TAF
AMD KCLL 262212Z 2622/2718 VRB05KT P6SM VCTS FEW050CB BKN110
TEMPO 2622/2624 6SM -TSRA BR BKN030CB
FM270000 13006KT P6SM SCT026 BKN035
FM271200 09003KT 6SM BR BKN015
FM271400 14006KT P6SM SCT013 BKN025
FM271600 15005KT P6SM BKN030

Example: see airport list